Terminal Aerodrome Forecast
Issued by NWS Cleveland, OH

Home | Current Version | Previous Version | Text Only | Print | Product List | Glossary Off
Versions: 1 2 3 4 5 6 7 8 9 10 11 12 13 14 15 16 17 18 19 20 21 22 23 24 25 26 27

000
FTUS41 KCLE 220500
TAFERI
TAF
KERI 220538Z 2206/2306 03012G20KT P6SM OVC012
     FM220900 02010KT P6SM OVC015
     FM221300 02010KT P6SM OVC025
     FM221800 02010KT P6SM OVC035
     FM230100 36007KT P6SM SCT035=

USA.gov is the U.S. government's official web portal to all federal, state and local government web resources and services.